Time;durP1;ratioP1;P1;durP2;ratioP2;P2;SDS_P1;SDS_P2;PMS_P1;PMS_P2;Temp;Humidity;BMP_temperature;BMP_pressure;BME280_temperature;BME280_humidity;BME280_pressure;Samples;Min_cycle;Max_cycle;Signal;HPM_P1;HPM_P2
2023/03/06 00:00:39;;;;;;;6.75;2.42;;;;;;;-2.43;52.36;98285.09;1668866;84;21556;-59
2023/03/06 00:03:08;;;;;;;5.65;1.80;;;;;;;-2.48;52.53;98282.61;1674319;84;21345;-60
2023/03/06 00:05:34;;;;;;;6.10;2.37;;;;;;;-2.50;52.54;98280.51;1673607;83;21085;-59
2023/03/06 00:08:01;;;;;;;5.70;2.50;;;;;;;-2.53;52.65;98277.56;1673344;83;21026;-61
2023/03/06 00:10:30;;;;;;;8.23;2.83;;;;;;;-2.54;52.68;98281.45;1670468;83;20998;-60
2023/03/06 00:13:01;;;;;;;4.83;2.42;;;;;;;-2.56;52.75;98281.45;1707303;82;21017;-60
2023/03/06 00:15:28;;;;;;;5.33;2.37;;;;;;;-2.55;52.76;98283.17;1776849;77;20963;-60
2023/03/06 00:17:56;;;;;;;;;;;;;;;-2.55;52.78;98284.45;1778005;79;21025;-61
2023/03/06 00:20:25;;;;;;;9.38;2.00;;;;;;;-2.57;53.28;98283.62;1788896;78;20509;-60
2023/03/06 00:22:52;;;;;;;7.05;1.90;;;;;;;-2.57;53.00;98287.45;1790586;78;21013;-59
2023/03/06 00:25:20;;;;;;;5.83;1.85;;;;;;;-2.59;52.95;98285.34;1793680;78;20997;-59
2023/03/06 00:27:48;;;;;;;7.83;2.10;;;;;;;-2.58;53.43;98279.36;1790202;78;21049;-59
2023/03/06 00:30:19;;;;;;;6.53;2.33;;;;;;;-2.57;53.20;98289.17;1792343;78;21033;-59
2023/03/06 00:32:47;;;;;;;5.42;2.45;;;;;;;-2.55;53.14;98286.13;1784502;79;20970;-60
2023/03/06 00:35:15;;;;;;;5.53;2.30;;;;;;;-2.57;53.21;98279.78;1791493;78;20947;-59
2023/03/06 00:37:42;;;;;;;7.75;2.05;;;;;;;-2.57;53.36;98287.45;1792789;78;21049;-59
2023/03/06 00:40:14;;;;;;;6.67;2.50;;;;;;;-2.58;53.37;98290.02;1791283;78;21078;-59
2023/03/06 00:42:41;;;;;;;4.95;2.08;;;;;;;-2.59;53.38;98282.80;1790588;78;21017;-59
2023/03/06 00:45:09;;;;;;;3.60;2.00;;;;;;;-2.60;53.42;98286.67;1793304;78;21007;-59
2023/03/06 00:47:35;;;;;;;4.25;2.25;;;;;;;-2.63;53.48;98291.39;1789203;78;21072;-59
2023/03/06 00:50:03;;;;;;;4.45;2.20;;;;;;;-2.67;53.55;98293.58;1788974;78;21158;-59
2023/03/06 00:52:29;;;;;;;;;;;;;;;-2.66;53.58;98289.30;1795395;78;21090;-60
2023/03/06 00:54:56;;;;;;;4.20;1.90;;;;;;;-2.68;53.78;98289.34;1790906;78;20409;-61
2023/03/06 00:57:24;;;;;;;4.40;1.90;;;;;;;-2.69;53.81;98285.09;1790675;78;21046;-62
2023/03/06 00:59:50;;;;;;;8.73;2.33;;;;;;;-2.67;53.86;98280.80;1794624;78;20931;-68
2023/03/06 01:02:17;;;;;;;9.58;2.50;;;;;;;-2.65;53.95;98281.62;1796186;78;20990;-61
2023/03/06 01:04:44;;;;;;;4.17;2.08;;;;;;;-2.63;53.92;98282.45;1748643;80;21065;-64
2023/03/06 01:07:11;;;;;;;6.60;2.50;;;;;;;-2.62;53.91;98281.57;1720285;81;21050;-62
2023/03/06 01:09:37;;;;;;;4.73;1.87;;;;;;;-2.63;54.16;98285.01;1794889;78;21113;-65
2023/03/06 01:12:05;;;;;;;2.93;1.70;;;;;;;-2.59;54.15;98277.69;1786710;79;21041;-60
2023/03/06 01:14:31;;;;;;;4.47;1.90;;;;;;;-2.55;54.29;98271.66;1783743;78;21044;-66
2023/03/06 01:16:58;;;;;;;5.17;1.77;;;;;;;-2.56;54.33;98272.95;1789557;78;21146;-60
2023/03/06 01:19:25;;;;;;;4.47;1.82;;;;;;;-2.57;54.27;98269.56;1789748;78;21025;-63
2023/03/06 01:21:51;;;;;;;7.65;2.50;;;;;;;-2.61;54.25;98270.47;1774467;78;21553;-65
2023/03/06 01:24:18;;;;;;;5.95;2.40;;;;;;;-2.62;54.35;98266.24;1773301;79;20992;-65
2023/03/06 01:26:44;;;;;;;12.58;2.00;;;;;;;-2.64;54.44;98265.41;1772969;79;21029;-59
2023/03/06 01:29:11;;;;;;;4.20;1.80;;;;;;;-2.64;54.46;98259.03;1774230;79;21069;-62
2023/03/06 01:31:37;;;;;;;4.05;1.85;;;;;;;-2.64;54.58;98262.86;1770346;79;21065;-62
2023/03/06 01:34:04;;;;;;;9.00;2.15;;;;;;;-2.63;54.79;98259.45;1772229;79;21068;-62
2023/03/06 01:36:31;;;;;;;5.47;1.72;;;;;;;-2.61;54.65;98257.69;1768485;79;21013;-63
2023/03/06 01:38:58;;;;;;;6.90;1.92;;;;;;;-2.60;54.63;98260.67;1772700;79;21002;-61
2023/03/06 01:41:24;;;;;;;6.90;2.60;;;;;;;-2.60;54.80;98250.90;1773842;79;21073;-63
2023/03/06 01:43:51;;;;;;;5.63;2.03;;;;;;;-2.59;54.85;98258.52;1764350;79;21060;-65
2023/03/06 01:46:37;;;;;;;3.77;1.55;;;;;;;-2.61;54.88;98252.58;1772363;79;21019;-66
2023/03/06 01:49:23;;;;;;;5.03;2.20;;;;;;;-2.63;54.84;98249.23;1764212;79;21011;-66
2023/03/06 01:52:01;;;;;;;4.42;2.15;;;;;;;-2.62;55.12;98243.24;1768470;79;21632;-61
2023/03/06 01:54:33;;;;;;;5.92;1.87;;;;;;;-2.60;55.14;98242.79;1769662;78;21132;-64
2023/03/06 01:57:05;;;;;;;11.12;1.85;;;;;;;-2.57;55.16;98241.45;1772873;79;21029;-67
2023/03/06 01:59:36;;;;;;;5.10;1.50;;;;;;;-2.60;55.16;98240.23;1732725;81;21925;-66
2023/03/06 02:02:05;;;;;;;5.37;2.40;;;;;;;-2.57;55.21;98242.73;1712179;82;21028;-63
2023/03/06 02:04:33;;;;;;;5.67;1.80;;;;;;;-2.53;55.24;98242.23;1710353;82;21049;-67
2023/03/06 02:07:03;;;;;;;3.37;1.57;;;;;;;-2.47;55.49;98241.67;1694150;81;21072;-67
2023/03/06 02:09:32;;;;;;;7.17;2.00;;;;;;;-2.42;55.34;98244.59;1691070;82;21017;-67
2023/03/06 02:12:00;;;;;;;6.37;2.33;;;;;;;-2.41;55.31;98248.82;1741072;80;21477;-66
2023/03/06 02:14:28;;;;;;;6.92;1.80;;;;;;;-2.43;55.57;98247.59;1708417;82;21042;-60
2023/03/06 02:16:55;;;;;;;10.65;1.92;;;;;;;-2.41;55.43;98241.16;1713840;82;21477;-58
2023/03/06 02:19:30;;;;;;;8.63;1.80;;;;;;;-2.42;55.50;98247.98;1734443;81;21454;-60
2023/03/06 02:21:56;;;;;;;7.20;1.52;;;;;;;-2.44;55.56;98243.77;1735904;80;21558;-59
2023/03/06 02:24:40;;;;;;;5.22;1.92;;;;;;;-2.45;55.67;98244.22;1740249;80;21030;-60
2023/03/06 02:27:09;;;;;;;4.20;1.67;;;;;;;-2.45;56.21;98233.16;1707933;82;21597;-60
2023/03/06 02:29:36;;;;;;;5.28;1.50;;;;;;;-2.44;55.78;98236.10;1736050;80;21584;-59
2023/03/06 02:32:04;;;;;;;3.55;1.50;;;;;;;-2.47;55.96;98234.00;1734140;80;21477;-62
2023/03/06 02:34:39;;;;;;;;;;;;;;;-2.49;55.92;98228.10;1718975;82;21105;-60
2023/03/06 02:37:10;;;;;;;3.67;1.60;;;;;;;-2.51;56.24;98233.67;1745384;80;20186;-67
2023/03/06 02:39:42;;;;;;;5.08;1.50;;;;;;;-2.55;55.95;98227.35;1743388;80;21073;-60
2023/03/06 02:42:09;;;;;;;5.45;1.82;;;;;;;-2.60;56.04;98231.29;1741958;80;21512;-59
2023/03/06 02:44:36;;;;;;;3.90;1.57;;;;;;;-2.60;56.19;98232.56;1742768;80;21628;-59
2023/03/06 02:47:03;;;;;;;4.40;1.45;;;;;;;-2.62;56.19;98235.58;1742132;80;21607;-67
2023/03/06 02:49:30;;;;;;;7.55;1.90;;;;;;;-2.64;56.52;98227.09;1746832;80;21624;-65
2023/03/06 02:51:56;;;;;;;2.60;1.45;;;;;;;-2.65;56.42;98229.69;1692534;82;21552;-67
2023/03/06 02:54:23;;;;;;;5.53;1.63;;;;;;;-2.69;56.18;98230.16;1710670;82;20964;-62
2023/03/06 02:56:49;;;;;;;6.20;1.82;;;;;;;-2.71;56.57;98220.42;1745392;80;21046;-60
2023/03/06 02:59:16;;;;;;;3.35;1.57;;;;;;;-2.73;56.52;98224.70;1716585;82;20947;-59
2023/03/06 03:01:42;;;;;;;3.17;1.47;;;;;;;-2.75;56.63;98223.88;1713444;82;21056;-60
2023/03/06 03:04:09;;;;;;;4.53;1.40;;;;;;;-2.75;56.49;98222.16;1719679;82;21094;-59
2023/03/06 03:06:36;;;;;;;4.80;2.20;;;;;;;-2.78;56.66;98226.50;1715730;82;21060;-61
2023/03/06 03:09:03;;;;;;;6.75;1.65;;;;;;;-2.79;56.75;98215.88;1719880;82;21082;-63
2023/03/06 03:11:29;;;;;;;8.40;2.02;;;;;;;-2.82;56.78;98222.33;1722832;82;21635;-59
2023/03/06 03:13:56;;;;;;;3.17;1.72;;;;;;;-2.85;56.84;98219.83;1717403;82;21077;-60
2023/03/06 03:16:23;;;;;;;6.83;1.87;;;;;;;-2.84;56.88;98217.67;1717448;82;21065;-59
2023/03/06 03:18:50;;;;;;;2.37;1.52;;;;;;;-2.82;56.94;98217.22;1716010;82;20984;-59
2023/03/06 03:21:18;;;;;;;6.63;1.97;;;;;;;-2.83;56.79;98210.40;1717756;82;21451;-65
2023/03/06 03:23:45;;;;;;;7.78;2.27;;;;;;;-2.87;56.93;98213.89;1720917;82;21422;-60
2023/03/06 03:26:19;;;;;;;7.70;2.27;;;;;;;-2.88;56.94;98213.06;1714950;82;21043;-60
2023/03/06 03:28:46;;;;;;;20.25;9.25;;;;;;;-2.89;56.90;98210.52;1714461;82;21108;-60
2023/03/06 03:31:13;;;;;;;33.13;17.30;;;;;;;-2.92;57.04;98211.41;1711670;82;21581;-60
2023/03/06 03:33:40;;;;;;;16.27;10.20;;;;;;;-2.96;57.06;98204.24;1719762;81;21490;-64
2023/03/06 03:36:08;;;;;;;15.40;7.75;;;;;;;-2.98;57.05;98209.80;1720820;81;20987;-59
2023/03/06 03:38:35;;;;;;;7.20;3.37;;;;;;;-3.00;57.11;98208.98;1722749;81;21070;-59
2023/03/06 03:41:02;;;;;;;5.55;3.37;;;;;;;-3.00;57.09;98203.03;1739574;80;21405;-60
2023/03/06 03:43:30;;;;;;;4.67;2.20;;;;;;;-2.99;57.27;98201.75;1693949;82;21217;-59
2023/03/06 03:45:56;;;;;;;6.12;3.17;;;;;;;-2.96;57.33;98202.97;1703757;82;21038;-59
2023/03/06 03:48:23;;;;;;;4.87;1.87;;;;;;;-2.98;57.53;98200.87;1737768;80;21159;-60
2023/03/06 03:50:50;;;;;;;8.37;1.80;;;;;;;-2.97;57.33;98201.30;1712893;82;21008;-59
2023/03/06 03:53:16;;;;;;;5.40;2.45;;;;;;;-2.96;57.45;98199.14;1741063;80;21485;-61
2023/03/06 03:55:48;;;;;;;4.40;2.03;;;;;;;-2.93;57.65;98196.52;1747485;79;21634;-62
2023/03/06 03:58:14;;;;;;;4.97;1.65;;;;;;;-2.92;57.57;98191.81;1739271;80;21092;-59
2023/03/06 04:00:41;;;;;;;4.17;1.70;;;;;;;-2.93;57.76;98186.31;1745101;79;21044;-62
2023/03/06 04:03:07;;;;;;;2.60;1.60;;;;;;;-2.98;57.74;98188.09;1745668;80;21077;-62
2023/03/06 04:05:34;;;;;;;5.13;1.77;;;;;;;-2.97;57.84;98183.42;1744321;79;21493;-64
2023/03/06 04:08:02;;;;;;;3.35;1.80;;;;;;;-2.97;57.74;98185.97;1744526;79;21513;-62
2023/03/06 04:10:28;;;;;;;3.02;1.50;;;;;;;-2.99;57.71;98185.14;1742914;80;21015;-60
2023/03/06 04:12:55;;;;;;;4.85;2.02;;;;;;;-3.01;57.80;98181.77;1739728;79;21828;-66
2023/03/06 04:15:21;;;;;;;3.25;2.20;;;;;;;-3.05;57.78;98181.43;1750036;80;22803;-65
2023/03/06 04:17:48;;;;;;;2.98;1.80;;;;;;;-3.10;58.14;98178.55;1693197;82;21550;-64
2023/03/06 04:20:15;;;;;;;6.47;1.50;;;;;;;-3.10;57.94;98174.28;1725657;81;21490;-66
2023/03/06 04:22:42;;;;;;;5.20;1.75;;;;;;;-3.10;58.10;98176.83;1736311;81;21030;-60
2023/03/06 04:25:09;;;;;;;3.58;1.45;;;;;;;-3.11;58.00;98172.57;1742598;80;20927;-64
2023/03/06 04:27:36;;;;;;;3.40;1.98;;;;;;;-3.10;58.18;98176.83;1781269;79;21525;-63
2023/03/06 04:30:05;;;;;;;6.12;1.80;;;;;;;-3.12;58.04;98173.45;1740851;80;21434;-64
2023/03/06 04:32:31;;;;;;;5.10;1.65;;;;;;;-3.15;58.17;98173.51;1755893;79;20939;-63
2023/03/06 04:34:58;;;;;;;3.42;2.00;;;;;;;-3.17;58.08;98179.06;1786447;78;21548;-64
2023/03/06 04:37:28;;;;;;;10.97;1.70;;;;;;;-3.19;58.17;98171.89;1778941;78;21006;-62
2023/03/06 04:39:54;;;;;;;2.40;1.80;;;;;;;-3.21;58.15;98174.45;1776016;79;21540;-63
2023/03/06 04:42:21;;;;;;;5.00;1.60;;;;;;;-3.22;58.18;98171.91;1779522;78;20977;-65
2023/03/06 04:44:47;;;;;;;7.60;1.87;;;;;;;-3.24;58.24;98171.12;1776538;79;21021;-61
2023/03/06 04:47:14;;;;;;;3.15;1.47;;;;;;;-3.22;58.28;98178.30;1783002;79;21037;-60
2023/03/06 04:49:41;;;;;;;3.70;1.67;;;;;;;-3.22;58.34;98171.91;1786381;79;20963;-67
2023/03/06 04:52:07;;;;;;;4.97;2.10;;;;;;;-3.19;58.44;98175.72;1783701;79;21017;-66
2023/03/06 04:54:34;;;;;;;5.35;1.50;;;;;;;-3.16;58.40;98169.28;1781516;79;20971;-65
2023/03/06 04:57:01;;;;;;;6.40;1.82;;;;;;;-3.17;58.41;98175.23;1743569;80;21027;-61
2023/03/06 04:59:27;;;;;;;5.17;1.87;;;;;;;-3.18;58.41;98171.84;1702889;82;20985;-65
2023/03/06 05:01:54;;;;;;;5.33;1.60;;;;;;;-3.18;58.50;98174.84;1715774;82;21034;-68
2023/03/06 05:04:21;;;;;;;3.15;1.45;;;;;;;-3.15;58.54;98163.30;1716963;82;21497;-68
2023/03/06 05:06:47;;;;;;;3.10;1.60;;;;;;;-3.14;58.63;98172.63;1713406;81;21475;-62
2023/03/06 05:09:14;;;;;;;5.20;2.00;;;;;;;-3.13;58.62;98169.23;1716634;82;21017;-68
2023/03/06 05:11:41;;;;;;;4.92;1.92;;;;;;;-3.09;58.69;98175.95;1716474;82;21013;-61
2023/03/06 05:14:07;;;;;;;3.85;1.47;;;;;;;-3.08;58.74;98164.02;1716210;80;21049;-62
2023/03/06 05:16:34;;;;;;;6.53;1.52;;;;;;;-3.10;58.66;98169.17;1720132;81;20972;-62
2023/03/06 05:19:01;;;;;;;4.10;1.98;;;;;;;-3.12;58.76;98172.62;1726398;80;21600;-62
2023/03/06 05:21:27;;;;;;;4.42;1.77;;;;;;;-3.13;58.74;98174.33;1730251;81;21592;-60
2023/03/06 05:23:54;;;;;;;3.97;1.43;;;;;;;-3.14;58.91;98175.18;1729467;80;21082;-66
2023/03/06 05:26:20;;;;;;;4.20;1.85;;;;;;;-3.11;58.92;98173.84;1726948;81;20941;-60
2023/03/06 05:28:47;;;;;;;5.00;1.95;;;;;;;-3.11;58.79;98175.12;1701400;81;21003;-60
2023/03/06 05:31:14;;;;;;;4.60;2.00;;;;;;;-3.11;58.94;98170.02;1695392;82;21104;-67
2023/03/06 05:33:40;;;;;;;9.97;2.10;;;;;;;-3.06;58.88;98177.17;1714586;82;21087;-58
2023/03/06 05:36:09;;;;;;;3.08;1.77;;;;;;;-3.08;58.88;98175.09;1722486;82;21777;-59
2023/03/06 05:38:35;;;;;;;4.83;2.08;;;;;;;-3.06;58.89;98175.05;1725644;82;20938;-62
2023/03/06 05:41:02;;;;;;;9.95;4.45;;;;;;;-3.05;59.06;98184.39;1723429;82;21098;-59
2023/03/06 05:43:29;;;;;;;6.42;2.67;;;;;;;-3.03;58.96;98180.94;1717561;82;21093;-61
2023/03/06 05:46:04;;;;;;;5.45;2.10;;;;;;;-3.00;59.07;98185.99;1725685;82;21026;-59
2023/03/06 05:48:33;;;;;;;5.62;2.58;;;;;;;-2.92;59.19;98180.77;1722497;82;22051;-58
2023/03/06 05:51:01;;;;;;;5.20;2.40;;;;;;;-2.82;59.24;98191.67;1725557;82;21002;-60
2023/03/06 05:53:28;;;;;;;10.35;3.72;;;;;;;-2.72;59.13;98188.93;1719032;82;20963;-60
2023/03/06 05:56:01;;;;;;;7.45;3.20;;;;;;;-2.61;59.23;98186.14;1725320;82;21035;-61
2023/03/06 05:58:28;;;;;;;8.20;2.55;;;;;;;-2.49;59.17;98185.93;1739897;81;21038;-68
2023/03/06 06:00:55;;;;;;;5.95;2.25;;;;;;;-2.35;59.23;98166.90;1711273;82;21048;-61
2023/03/06 06:03:22;;;;;;;6.28;2.87;;;;;;;-2.24;59.24;98185.45;1709546;82;21068;-60
2023/03/06 06:05:49;;;;;;;;;;;;;;;-2.09;59.23;98187.67;1738562;81;21086;-67
2023/03/06 06:08:17;;;;;;;8.00;3.25;;;;;;;-1.93;59.32;98187.34;1730007;81;20112;-61
2023/03/06 06:10:44;;;;;;;5.95;2.37;;;;;;;-1.79;59.26;98182.79;1733788;81;21038;-68
2023/03/06 06:13:10;;;;;;;4.25;2.42;;;;;;;-1.65;59.19;98182.48;1733521;81;20979;-60
2023/03/06 06:15:38;;;;;;;5.37;2.60;;;;;;;-1.51;59.23;98183.41;1736103;81;21685;-60
2023/03/06 06:18:04;;;;;;;6.62;2.77;;;;;;;-1.35;59.23;98191.14;1736457;81;21049;-60
2023/03/06 06:20:31;;;;;;;8.35;2.87;;;;;;;-1.21;59.27;98181.41;1735127;81;21002;-60
2023/03/06 06:22:58;;;;;;;11.22;3.20;;;;;;;-1.04;59.25;98180.15;1715927;82;21102;-59
2023/03/06 06:25:24;;;;;;;5.62;2.80;;;;;;;-0.87;59.20;98185.68;1713496;82;22192;-59
2023/03/06 06:27:55;;;;;;;4.83;2.37;;;;;;;-0.72;59.19;98180.17;1738468;80;21011;-61
2023/03/06 06:30:22;;;;;;;9.93;2.67;;;;;;;-0.56;59.09;98184.88;1781787;79;21056;-62
2023/03/06 06:32:50;;;;;;;5.22;2.00;;;;;;;-0.45;59.14;98190.55;1777543;78;21048;-60
2023/03/06 06:35:17;;;;;;;9.58;2.27;;;;;;;-0.33;59.03;98188.95;1772552;79;21006;-60
2023/03/06 06:37:44;;;;;;;10.28;2.70;;;;;;;-0.17;59.15;98191.07;1775779;79;21092;-61
2023/03/06 06:40:12;;;;;;;4.92;2.62;;;;;;;0.03;59.08;98193.92;1772284;78;21203;-60
2023/03/06 06:42:39;;;;;;;5.72;2.62;;;;;;;0.26;59.18;98198.81;1777378;78;21525;-60
2023/03/06 06:45:09;;;;;;;10.50;3.07;;;;;;;0.48;59.20;98194.71;1745398;80;21030;-59
2023/03/06 06:47:39;;;;;;;7.35;2.50;;;;;;;0.70;59.04;98191.45;1744781;81;21313;-59
2023/03/06 06:50:06;;;;;;;4.37;2.62;;;;;;;0.86;58.92;98190.07;1742851;81;21093;-60
2023/03/06 06:52:33;;;;;;;6.37;2.77;;;;;;;1.02;58.88;98186.56;1735244;80;20986;-62
2023/03/06 06:55:00;;;;;;;4.90;2.50;;;;;;;1.18;58.77;98193.33;1774237;78;20939;-62
2023/03/06 06:57:26;;;;;;;8.20;2.92;;;;;;;1.40;58.85;98190.41;1786610;78;20997;-62
2023/03/06 06:59:54;;;;;;;5.03;2.87;;;;;;;1.64;58.87;98192.55;1738831;80;21024;-61
2023/03/06 07:02:30;;;;;;;12.20;2.77;;;;;;;1.95;58.90;98189.70;1744629;80;21064;-64
2023/03/06 07:04:50;;;;;;;9.18;2.55;;;;;;;2.27;58.80;98190.25;1739017;80;20980;-65
2023/03/06 07:07:17;;;;;;;14.40;3.00;;;;;;;2.58;58.70;98187.78;1738378;80;21063;-67
2023/03/06 07:09:43;;;;;;;6.62;2.70;;;;;;;2.87;58.62;98188.73;1747252;79;21027;-60
2023/03/06 07:12:10;;;;;;;5.67;2.80;;;;;;;3.19;58.45;98180.10;1736422;80;21014;-62
2023/03/06 07:14:36;;;;;;;4.70;2.50;;;;;;;3.47;58.44;98180.22;1729135;79;21087;-60
2023/03/06 07:17:03;;;;;;;8.25;3.20;;;;;;;3.86;58.54;98185.38;1739586;80;20927;-63
2023/03/06 07:19:30;;;;;;;7.42;3.17;;;;;;;4.28;58.42;98186.09;1748688;80;20969;-65
2023/03/06 07:21:58;;;;;;;6.65;2.75;;;;;;;4.70;58.33;98186.69;1754577;80;21029;-60
2023/03/06 07:24:28;;;;;;;7.50;2.70;;;;;;;5.04;58.26;98187.63;1748388;79;21169;-62
2023/03/06 07:26:55;;;;;;;4.67;2.67;;;;;;;5.31;57.55;98193.63;1743093;81;21046;-63
2023/03/06 07:29:21;;;;;;;34.78;3.75;;;;;;;5.52;57.91;98188.66;1715976;82;20965;-62
2023/03/06 07:31:48;;;;;;;6.57;2.43;;;;;;;5.73;57.75;98196.23;1741329;80;20979;-66
2023/03/06 07:34:15;;;;;;;10.68;2.77;;;;;;;5.82;57.56;98191.42;1743030;81;21089;-65
2023/03/06 07:36:42;;;;;;;15.83;2.83;;;;;;;6.00;57.60;98192.23;1743537;80;21019;-65
2023/03/06 07:39:09;;;;;;;5.15;2.30;;;;;;;6.29;57.51;98192.42;1743801;80;21049;-61
2023/03/06 07:41:38;;;;;;;8.93;3.95;;;;;;;6.56;57.30;98197.86;1747315;80;21018;-63
2023/03/06 07:44:04;;;;;;;3.50;2.37;;;;;;;6.74;57.17;98190.80;1743917;80;21053;-61
2023/03/06 07:46:31;;;;;;;6.45;2.87;;;;;;;6.64;56.52;98196.15;1725455;81;21526;-61
2023/03/06 07:48:58;;;;;;;7.95;3.20;;;;;;;6.74;56.75;98199.88;1719186;81;21548;-66
2023/03/06 07:51:27;;;;;;;5.20;2.60;;;;;;;6.85;56.75;98198.81;1719749;80;21086;-70
2023/03/06 07:53:54;;;;;;;28.62;3.30;;;;;;;7.19;56.78;98189.11;1722938;82;21087;-67
2023/03/06 07:56:20;;;;;;;9.53;2.92;;;;;;;7.58;56.52;98190.30;1718583;80;21094;-60
2023/03/06 07:58:48;;;;;;;6.28;1.82;;;;;;;8.16;56.62;98193.27;1720844;81;21031;-63
2023/03/06 08:01:19;;;;;;;5.30;2.25;;;;;;;8.64;56.29;98192.45;1711014;82;21127;-60
2023/03/06 08:03:46;;;;;;;7.15;2.20;;;;;;;8.81;55.87;98186.64;1715757;81;21541;-60
2023/03/06 08:06:19;;;;;;;5.90;1.70;;;;;;;9.27;56.00;98192.73;1720554;82;20963;-60
2023/03/06 08:08:47;;;;;;;3.52;2.12;;;;;;;9.67;55.68;98184.87;1723251;82;21098;-60
2023/03/06 08:11:17;;;;;;;8.73;2.22;;;;;;;9.92;55.52;98184.85;1715781;82;21010;-60
2023/03/06 08:13:44;;;;;;;9.48;2.70;;;;;;;10.39;54.89;98178.56;1739325;81;20963;-60
2023/03/06 08:16:11;;;;;;;4.42;2.50;;;;;;;10.72;54.75;98179.23;1786025;79;21064;-60
2023/03/06 08:18:38;;;;;;;14.38;2.72;;;;;;;10.95;54.75;98178.41;1784403;78;20970;-60
2023/03/06 08:21:12;;;;;;;22.95;3.85;;;;;;;11.55;54.81;98179.65;1784071;78;20975;-70
2023/03/06 08:23:40;;;;;;;14.90;4.53;;;;;;;12.41;54.68;98171.72;1787609;78;21018;-61
2023/03/06 08:26:18;;;;;;;12.18;3.70;;;;;;;13.24;54.35;98175.47;1783273;78;21485;-64
2023/03/06 08:28:45;;;;;;;7.33;2.95;;;;;;;14.30;54.13;98165.53;1771254;78;21002;-60
2023/03/06 08:31:33;;;;;;;11.75;3.33;;;;;;;15.30;54.24;98170.30;1759075;79;20990;-60
2023/03/06 08:34:04;;;;;;;14.70;2.83;;;;;;;16.32;53.72;98164.66;1776242;79;21094;-60
2023/03/06 08:36:33;;;;;;;9.30;2.83;;;;;;;17.11;53.49;98168.48;1782213;79;20949;-61
2023/03/06 08:39:01;;;;;;;6.53;3.55;;;;;;;17.94;53.09;98162.79;1778448;79;21041;-62
2023/03/06 08:41:28;;;;;;;8.28;4.30;;;;;;;18.74;52.95;98165.11;1777964;78;21017;-62
2023/03/06 08:43:56;;;;;;;7.42;2.70;;;;;;;19.75;52.95;98161.33;1777365;79;21031;-60
2023/03/06 08:46:25;;;;;;;2.83;1.75;;;;;;;20.60;51.88;98155.39;1780293;78;21026;-61
2023/03/06 08:48:52;;;;;;;7.37;1.70;;;;;;;21.19;51.00;98166.26;1778242;79;21100;-61
2023/03/06 08:51:19;;;;;;;;;;;;;;;21.66;50.46;98163.38;1777351;79;21054;-62
2023/03/06 08:53:47;;;;;;;7.58;2.02;;;;;;;22.32;48.39;98162.67;1781397;79;20086;-63
2023/03/06 08:56:32;;;;;;;3.20;1.82;;;;;;;22.90;49.49;98163.54;1775164;79;21003;-61
2023/03/06 08:59:02;;;;;;;9.30;2.70;;;;;;;23.42;49.19;98157.61;1771619;78;21116;-64
2023/03/06 09:01:33;;;;;;;6.75;2.35;;;;;;;24.18;48.09;98159.56;1782305;78;21504;-63
2023/03/06 09:04:04;;;;;;;5.70;2.50;;;;;;;24.78;47.43;98160.10;1781533;78;21454;-68
2023/03/06 09:06:35;;;;;;;8.73;2.05;;;;;;;25.59;47.05;98160.52;1791813;78;20962;-61
2023/03/06 09:09:04;;;;;;;22.17;2.83;;;;;;;26.08;46.09;98155.23;1782154;79;20962;-68
2023/03/06 09:11:33;;;;;;;5.97;2.40;;;;;;;25.82;44.90;98156.58;1767255;79;20958;-61
2023/03/06 09:13:59;;;;;;;3.22;1.70;;;;;;;26.30;43.58;98161.65;1778011;79;20930;-62
2023/03/06 09:16:26;;;;;;;3.87;1.40;;;;;;;26.51;42.90;98162.70;1782296;78;21062;-59
2023/03/06 09:18:53;;;;;;;10.00;1.92;;;;;;;26.32;42.19;98170.27;1776558;79;21066;-58
2023/03/06 09:21:26;;;;;;;3.90;2.10;;;;;;;26.53;41.53;98163.33;1781055;78;21057;-59
2023/03/06 09:23:51;;;;;;;3.37;1.62;;;;;;;25.83;39.80;98164.96;1746139;79;21522;-58
2023/03/06 09:26:20;;;;;;;2.80;1.50;;;;;;;25.53;39.52;98160.02;1707537;82;21683;-58
2023/03/06 09:28:50;;;;;;;3.50;2.17;;;;;;;25.88;39.19;98167.84;1702120;82;21151;-59
2023/03/06 09:31:19;;;;;;;3.75;2.00;;;;;;;26.93;38.52;98165.78;1735382;80;21170;-60
2023/03/06 09:33:47;;;;;;;4.37;2.02;;;;;;;27.92;37.66;98163.91;1738640;80;21052;-59
2023/03/06 09:36:19;;;;;;;8.45;2.40;;;;;;;27.32;36.24;98171.94;1709159;82;21098;-58
2023/03/06 09:38:48;;;;;;;17.17;2.77;;;;;;;25.59;35.78;98172.55;1707488;82;21028;-58
2023/03/06 09:41:26;;;;;;;6.58;1.50;;;;;;;24.54;34.85;98167.34;1702405;82;21042;-58
2023/03/06 09:44:03;;;;;;;5.08;1.42;;;;;;;23.10;34.32;98173.59;1700331;82;21118;-58
2023/03/06 09:46:43;;;;;;;12.58;2.50;;;;;;;21.66;33.36;98181.97;1668888;84;20999;-58
2023/03/06 09:49:44;;;;;;;4.15;1.75;;;;;;;20.32;32.90;98180.50;1669414;83;21567;-59
2023/03/06 09:52:19;;;;;;;3.10;1.45;;;;;;;19.15;32.38;98182.33;1694400;82;21011;-58
2023/03/06 09:54:53;;;;;;;4.70;1.60;;;;;;;17.64;31.59;98186.03;1736451;80;21045;-61
2023/03/06 09:57:31;;;;;;;6.73;1.87;;;;;;;17.97;32.31;98182.28;1706112;81;21011;-58
2023/03/06 10:00:03;;;;;;;5.20;1.62;;;;;;;20.33;32.13;98174.22;1733483;80;20982;-60
2023/03/06 10:02:41;;;;;;;5.28;1.75;;;;;;;22.55;32.08;98176.68;1738628;80;21030;-59
2023/03/06 10:05:24;;;;;;;2.70;1.60;;;;;;;24.59;31.98;98168.91;1741581;80;22309;-58
2023/03/06 10:07:59;;;;;;;6.25;2.17;;;;;;;25.00;31.30;98167.97;1733675;80;21026;-58
2023/03/06 10:10:43;;;;;;;4.80;2.05;;;;;;;25.59;31.49;98166.38;1739602;80;20944;-58
2023/03/06 10:13:39;;;;;;;6.17;2.00;;;;;;;25.68;30.71;98169.98;1733160;80;20998;-58
2023/03/06 10:16:30;;;;;;;8.18;1.75;;;;;;;24.58;30.42;98164.57;1731495;81;21552;-59
2023/03/06 10:19:02;;;;;;;5.53;2.35;;;;;;;26.09;30.42;98161.39;1737144;80;20962;-65
2023/03/06 10:22:22;;;;;;;6.60;1.80;;;;;;;27.90;30.23;98160.12;1737760;80;21047;-60
2023/03/06 10:25:14;;;;;;;3.33;1.42;;;;;;;27.54;29.56;98154.14;1774612;79;21607;-60
2023/03/06 10:28:11;;;;;;;2.05;1.42;;;;;;;26.58;29.11;98165.38;1775730;79;20998;-65
2023/03/06 10:31:14;;;;;;;4.90;1.40;;;;;;;25.22;28.48;98166.79;1781166;79;22232;-59
2023/03/06 10:33:58;;;;;;;2.80;1.37;;;;;;;23.38;27.95;98169.13;1782146;79;21027;-59
2023/03/06 10:36:30;;;;;;;2.60;1.25;;;;;;;23.84;28.09;98171.36;1778267;78;20958;-62
2023/03/06 10:38:58;;;;;;;2.02;1.10;;;;;;;26.48;28.37;98165.78;1779211;78;20967;-64
2023/03/06 10:41:34;;;;;;;3.12;1.50;;;;;;;28.71;27.54;98156.30;1783136;79;21061;-60
2023/03/06 10:44:06;;;;;;;2.40;1.42;;;;;;;27.72;26.78;98160.86;1779636;79;21025;-59
2023/03/06 10:46:42;;;;;;;3.25;1.82;;;;;;;27.40;26.88;98160.95;1773924;79;21006;-59
2023/03/06 10:49:35;;;;;;;;;;;;;;;28.51;26.84;98153.03;1787950;79;21578;-59
2023/03/06 10:52:15;;;;;;;2.15;0.80;;;;;;;30.25;25.89;98154.61;1781838;78;20138;-60
2023/03/06 10:54:44;;;;;;;4.85;1.22;;;;;;;30.10;26.06;98150.52;1780455;78;20953;-63
2023/03/06 10:57:30;;;;;;;5.15;1.45;;;;;;;28.07;25.35;98146.94;1775124;79;21073;-58
2023/03/06 11:00:08;;;;;;;2.40;1.45;;;;;;;26.82;25.09;98161.11;1770628;79;20970;-62
2023/03/06 11:02:40;;;;;;;2.95;1.32;;;;;;;27.00;25.07;98158.54;1704813;82;21039;-59
2023/03/06 11:05:19;;;;;;;3.27;1.32;;;;;;;26.29;24.49;98158.66;1735601;81;21153;-61
2023/03/06 11:07:59;;;;;;;1.57;0.98;;;;;;;26.87;24.49;98153.26;1715475;82;21022;-60
2023/03/06 11:10:28;;;;;;;2.05;1.00;;;;;;;28.23;24.34;98145.00;1780456;78;21066;-66
2023/03/06 11:13:20;;;;;;;2.42;1.02;;;;;;;29.18;24.10;98150.25;1776516;78;21265;-60
2023/03/06 11:16:03;;;;;;;2.55;1.10;;;;;;;29.43;23.64;98136.61;1755260;79;21541;-60
2023/03/06 11:18:41;;;;;;;7.55;1.57;;;;;;;29.98;23.65;98141.66;1775680;79;20962;-62
2023/03/06 11:21:34;;;;;;;2.22;1.30;;;;;;;30.88;23.63;98134.86;1776512;79;21085;-60
2023/03/06 11:24:20;;;;;;;3.92;1.32;;;;;;;31.43;23.06;98134.73;1739994;80;21018;-60
2023/03/06 11:26:57;;;;;;;1.57;0.88;;;;;;;32.86;22.86;98126.32;1737528;80;21611;-61
2023/03/06 11:29:35;;;;;;;1.95;1.00;;;;;;;34.61;22.91;98128.55;1773712;78;21044;-59
2023/03/06 11:32:19;;;;;;;1.42;0.80;;;;;;;36.40;22.65;98118.07;1777514;78;21714;-66
2023/03/06 11:34:54;;;;;;;2.75;1.20;;;;;;;37.54;21.85;98120.56;1783086;78;21072;-72
2023/03/06 11:37:58;;;;;;;3.08;1.60;;;;;;;38.17;21.59;98116.07;1758632;78;20971;-69
2023/03/06 11:40:44;;;;;;;2.17;1.15;;;;;;;38.86;21.41;98117.34;1782074;79;21513;-59
2023/03/06 11:43:39;;;;;;;7.92;1.42;;;;;;;39.58;20.89;98114.80;1786641;79;20977;-60
2023/03/06 11:46:21;;;;;;;3.80;1.40;;;;;;;40.04;20.23;98109.83;1781797;79;21024;-58
2023/03/06 11:48:59;;;;;;;5.28;1.42;;;;;;;37.01;19.40;98112.30;1780967;79;21485;-59